createdAt,value
2014-10-19T00:00:04.721Z,21.4
2014-10-19T00:00:33.098Z,21.4
2014-10-19T00:01:01.473Z,21.4
2014-10-19T00:01:29.851Z,21.4
2014-10-19T00:01:58.226Z,21.4
2014-10-19T00:02:26.616Z,21.4
2014-10-19T00:02:54.993Z,21.4
2014-10-19T00:03:23.368Z,21.4
2014-10-19T00:03:51.745Z,21.4
2014-10-19T00:04:20.120Z,21.4
2014-10-19T00:04:48.498Z,21.4
2014-10-19T00:05:16.873Z,21.4
2014-10-19T00:05:45.248Z,21.4
2014-10-19T00:06:13.625Z,21.4
2014-10-19T00:06:42.000Z,21.4
2014-10-19T00:07:10.378Z,21.4
2014-10-19T00:07:38.753Z,21.4
2014-10-19T00:08:07.131Z,21.4
2014-10-19T00:08:35.506Z,21.4
2014-10-19T00:09:03.881Z,21.4
2014-10-19T00:09:32.274Z,21.4
2014-10-19T00:10:00.649Z,21.4
2014-10-19T00:10:29.027Z,21.4
2014-10-19T00:10:57.402Z,21.4
2014-10-19T00:11:25.780Z,21.4
2014-10-19T00:11:54.155Z,21.4
2014-10-19T00:12:22.530Z,21.4
2014-10-19T00:12:50.907Z,21.4
2014-10-19T00:13:19.282Z,21.4
2014-10-19T00:13:47.676Z,21.4
2014-10-19T00:14:16.051Z,21.4
2014-10-19T00:14:44.429Z,21.4
2014-10-19T00:15:12.804Z,21.4
2014-10-19T00:15:41.179Z,21.4
2014-10-19T00:16:09.587Z,21.4
2014-10-19T00:16:37.931Z,21.3
2014-10-19T00:17:06.323Z,21.3
2014-10-19T00:17:34.698Z,21.3
2014-10-19T00:18:03.076Z,21.4
2014-10-19T00:18:31.451Z,21.3
2014-10-19T00:18:59.826Z,21.4
2014-10-19T00:19:28.204Z,21.3
2014-10-19T00:19:56.579Z,21.3
2014-10-19T00:20:24.956Z,21.3
2014-10-19T00:20:53.331Z,21.3
2014-10-19T00:21:21.708Z,21.3
2014-10-19T00:21:50.083Z,21.3
2014-10-19T00:22:18.458Z,21.3
2014-10-19T00:22:46.836Z,21.3
2014-10-19T00:23:15.211Z,21.3
2014-10-19T00:23:43.588Z,21.3
2014-10-19T00:24:11.963Z,21.3
2014-10-19T00:24:40.341Z,21.3
2014-10-19T00:25:08.732Z,21.3
2014-10-19T00:25:37.107Z,21.3
2014-10-19T00:26:05.485Z,21.3
2014-10-19T00:26:33.860Z,21.3
2014-10-19T00:27:02.237Z,21.3
2014-10-19T00:27:30.612Z,21.3
2014-10-19T00:27:58.990Z,21.3
2014-10-19T00:28:27.365Z,21.3
2014-10-19T00:28:55.740Z,21.3
2014-10-19T00:29:24.117Z,21.3
2014-10-19T00:29:52.507Z,21.3
2014-10-19T00:30:20.885Z,21.3
2014-10-19T00:30:49.260Z,21.3
2014-10-19T00:31:17.638Z,21.3
2014-10-19T00:31:46.013Z,21.3
2014-10-19T00:32:14.388Z,21.3
2014-10-19T00:32:42.765Z,21.3
2014-10-19T00:33:11.140Z,21.3
2014-10-19T00:33:39.517Z,21.3
2014-10-19T00:34:07.892Z,21.3
2014-10-19T00:34:36.270Z,21.3
2014-10-19T00:35:04.661Z,21.3
2014-10-19T00:35:33.036Z,21.3
2014-10-19T00:36:01.414Z,21.3
2014-10-19T00:36:29.789Z,21.3
2014-10-19T00:36:58.165Z,21.2
2014-10-19T00:37:26.540Z,21.2
2014-10-19T00:37:54.934Z,21.2
2014-10-19T00:38:23.309Z,21.2
2014-10-19T00:38:51.684Z,21.2
2014-10-19T00:39:20.062Z,21.2
2014-10-19T00:39:48.437Z,21.2
2014-10-19T00:40:16.815Z,21.2
2014-10-19T00:40:45.190Z,21.2
2014-10-19T00:41:13.568Z,21.2
2014-10-19T00:41:41.943Z,21.2
2014-10-19T00:42:10.318Z,21.2
2014-10-19T00:42:38.695Z,21.2
2014-10-19T00:43:07.070Z,21.2
2014-10-19T00:43:35.447Z,21.2
2014-10-19T00:44:03.822Z,21.2
2014-10-19T00:44:32.200Z,21.2
2014-10-19T00:45:00.575Z,21.2
2014-10-19T00:45:28.950Z,21.2
2014-10-19T00:45:57.327Z,21.2
2014-10-19T00:46:25.702Z,21.2
2014-10-19T00:46:54.080Z,21.2
2014-10-19T00:47:22.455Z,21.2
2014-10-19T00:47:50.833Z,21.2
2014-10-19T00:48:19.208Z,21.2
2014-10-19T00:48:47.598Z,21.2
2014-10-19T00:49:15.960Z,21.2
2014-10-19T00:49:44.335Z,21.2
2014-10-19T00:50:12.713Z,21.2
2014-10-19T00:50:41.088Z,21.2
2014-10-19T00:51:09.466Z,21.2
2014-10-19T00:51:37.841Z,21.2
2014-10-19T00:52:06.216Z,21.2
2014-10-19T00:52:34.593Z,21.2
2014-10-19T00:53:02.968Z,21.2
2014-10-19T00:53:31.345Z,21.2
2014-10-19T00:53:59.720Z,21.2
2014-10-19T00:54:28.098Z,21.2
2014-10-19T00:54:56.473Z,21.2
2014-10-19T00:55:24.848Z,21.2
2014-10-19T00:55:53.225Z,21.2
2014-10-19T00:56:21.600Z,21.2
2014-10-19T00:56:49.978Z,21.1
2014-10-19T00:57:18.212Z,21.2
2014-10-19T00:57:46.589Z,21.2
2014-10-19T00:58:14.964Z,21.1
2014-10-19T00:58:43.339Z,21.1
2014-10-19T00:59:11.717Z,21.1
2014-10-19T00:59:40.092Z,21.1
2014-10-19T01:00:08.469Z,21.1
2014-10-19T01:00:36.844Z,21.1
2014-10-19T01:01:05.222Z,21.1
2014-10-19T01:01:33.597Z,21.1
2014-10-19T01:02:01.972Z,21.1
2014-10-19T01:02:30.366Z,21.1
2014-10-19T01:02:58.741Z,21.1
2014-10-19T01:03:27.118Z,21.1
2014-10-19T01:03:55.493Z,21.1
2014-10-19T01:04:23.871Z,21.1
2014-10-19T01:04:52.246Z,21.1
2014-10-19T01:05:20.621Z,21.1
2014-10-19T01:05:48.998Z,21.1
2014-10-19T01:06:17.373Z,21.1
2014-10-19T01:06:45.751Z,21.1
2014-10-19T01:07:14.126Z,21.1
2014-10-19T01:07:42.504Z,21.1
2014-10-19T01:08:10.879Z,21.1
2014-10-19T01:08:39.254Z,21.1
2014-10-19T01:09:07.631Z,21.1
2014-10-19T01:09:36.006Z,21.1
2014-10-19T01:10:04.383Z,21.1
2014-10-19T01:10:32.758Z,21.1
2014-10-19T01:11:01.136Z,21.1
2014-10-19T01:11:29.511Z,21.1
2014-10-19T01:11:57.886Z,21.1
2014-10-19T01:12:26.263Z,21.1
2014-10-19T01:12:54.638Z,21.1
2014-10-19T01:13:23.016Z,21.1
2014-10-19T01:13:51.391Z,21.1
2014-10-19T01:14:19.784Z,21.1
2014-10-19T01:14:48.144Z,21.1
2014-10-19T01:15:16.534Z,21.1
2014-10-19T01:15:44.911Z,21.1
2014-10-19T01:16:13.286Z,21.1
2014-10-19T01:16:41.663Z,21.1
2014-10-19T01:17:10.038Z,21.1
2014-10-19T01:17:38.432Z,21.1
2014-10-19T01:18:06.791Z,21.1
2014-10-19T01:18:35.166Z,21.1
2014-10-19T01:19:03.543Z,21
2014-10-19T01:19:31.918Z,21.1
2014-10-19T01:20:00.296Z,21
2014-10-19T01:20:28.671Z,21.1
2014-10-19T01:20:57.049Z,21.1
2014-10-19T01:21:25.440Z,21
2014-10-19T01:21:53.799Z,21.1
2014-10-19T01:22:22.192Z,21
2014-10-19T01:22:50.567Z,21
2014-10-19T01:23:18.945Z,21
2014-10-19T01:23:47.320Z,21
2014-10-19T01:24:15.697Z,21
2014-10-19T01:24:44.072Z,21
2014-10-19T01:25:12.447Z,21
2014-10-19T01:25:40.825Z,21
2014-10-19T01:26:09.200Z,21
2014-10-19T01:26:37.578Z,21
2014-10-19T01:27:05.953Z,21
2014-10-19T01:27:34.331Z,21
2014-10-19T01:28:02.706Z,21
2014-10-19T01:28:31.081Z,21
2014-10-19T01:28:59.457Z,21
2014-10-19T01:29:27.832Z,21
2014-10-19T01:29:56.210Z,21
2014-10-19T01:30:24.585Z,21
2014-10-19T01:30:52.963Z,21
2014-10-19T01:31:21.338Z,21
2014-10-19T01:31:49.713Z,21
2014-10-19T01:32:18.090Z,21
2014-10-19T01:32:46.465Z,21
2014-10-19T01:33:14.843Z,21
2014-10-19T01:33:43.218Z,21
2014-10-19T01:34:11.596Z,21
2014-10-19T01:34:39.971Z,21
2014-10-19T01:35:08.346Z,21
2014-10-19T01:35:36.738Z,21
2014-10-19T01:36:05.113Z,21
2014-10-19T01:36:33.491Z,21
2014-10-19T01:37:01.866Z,21
2014-10-19T01:37:30.244Z,21
2014-10-19T01:37:58.619Z,21
2014-10-19T01:38:26.994Z,21
2014-10-19T01:38:55.372Z,21
2014-10-19T01:39:23.747Z,21
2014-10-19T01:39:52.124Z,21
2014-10-19T01:40:20.499Z,21
2014-10-19T01:40:48.877Z,21
2014-10-19T01:41:17.252Z,20.9
2014-10-19T01:41:45.627Z,20.9
2014-10-19T01:42:14.004Z,20.9
2014-10-19T01:42:42.379Z,20.9
2014-10-19T01:43:10.756Z,20.9
2014-10-19T01:43:39.131Z,20.9
2014-10-19T01:44:07.509Z,20.9
2014-10-19T01:44:35.884Z,20.9
2014-10-19T01:45:04.259Z,20.9
2014-10-19T01:45:32.637Z,20.9
2014-10-19T01:46:01.012Z,20.9
2014-10-19T01:46:29.389Z,20.9
2014-10-19T01:46:57.764Z,20.9
2014-10-19T01:47:26.142Z,20.9
2014-10-19T01:47:54.517Z,20.9
2014-10-19T01:48:22.892Z,20.9
2014-10-19T01:48:51.269Z,20.9
2014-10-19T01:49:19.644Z,20.9
2014-10-19T01:49:48.022Z,20.9
2014-10-19T01:50:16.397Z,20.9
2014-10-19T01:50:44.775Z,20.9
2014-10-19T01:51:13.150Z,20.9
2014-10-19T01:51:41.540Z,20.9
2014-10-19T01:52:09.917Z,20.9
2014-10-19T01:52:38.292Z,20.9
2014-10-19T01:53:06.669Z,20.9
2014-10-19T01:53:35.044Z,20.9
2014-10-19T01:54:03.422Z,20.9
2014-10-19T01:54:31.797Z,20.9
2014-10-19T01:55:00.172Z,20.9
2014-10-19T01:55:28.550Z,20.9
2014-10-19T01:55:56.925Z,20.9
2014-10-19T01:56:25.302Z,20.9
2014-10-19T01:56:53.677Z,20.9
2014-10-19T01:57:22.055Z,20.9
2014-10-19T01:57:50.430Z,20.9
2014-10-19T01:58:18.805Z,20.9
2014-10-19T01:58:47.183Z,20.9
2014-10-19T01:59:15.558Z,20.9
2014-10-19T01:59:43.934Z,20.9
2014-10-19T02:00:12.309Z,20.9
2014-10-19T02:00:40.703Z,20.9
2014-10-19T02:01:09.078Z,20.9
2014-10-19T02:01:37.453Z,20.9
2014-10-19T02:02:05.831Z,20.9
2014-10-19T02:02:34.206Z,20.9
2014-10-19T02:03:02.584Z,20.9
2014-10-19T02:03:30.959Z,20.9
2014-10-19T02:03:59.351Z,20.9
2014-10-19T02:04:27.726Z,20.9
2014-10-19T02:04:56.101Z,20.9
2014-10-19T02:05:24.478Z,20.9
2014-10-19T02:05:52.853Z,20.9
2014-10-19T02:06:21.231Z,20.9
2014-10-19T02:06:49.606Z,20.9
2014-10-19T02:07:17.987Z,20.9
2014-10-19T02:07:46.362Z,20.9
2014-10-19T02:08:14.737Z,20.9
2014-10-19T02:08:43.117Z,20.8
2014-10-19T02:09:11.492Z,20.9
2014-10-19T02:09:39.872Z,20.8
2014-10-19T02:10:08.247Z,20.9
2014-10-19T02:10:36.628Z,20.8
2014-10-19T02:11:05.003Z,20.8
2014-10-19T02:11:33.378Z,20.8
2014-10-19T02:12:01.757Z,20.8
2014-10-19T02:12:30.132Z,20.8
2014-10-19T02:12:58.511Z,20.8
2014-10-19T02:13:26.886Z,20.8
2014-10-19T02:13:55.265Z,20.8
2014-10-19T02:14:23.640Z,20.8
2014-10-19T02:14:52.015Z,20.8
2014-10-19T02:15:20.392Z,20.8
2014-10-19T02:15:48.767Z,20.8
2014-10-19T02:16:17.161Z,20.8
2014-10-19T02:16:45.380Z,20.8
2014-10-19T02:17:13.760Z,20.8
2014-10-19T02:17:42.135Z,20.8
2014-10-19T02:18:10.510Z,20.8
2014-10-19T02:18:38.887Z,20.8
2014-10-19T02:19:07.262Z,20.8
2014-10-19T02:19:35.640Z,20.8
2014-10-19T02:20:04.015Z,20.8
2014-10-19T02:20:32.394Z,20.8
2014-10-19T02:21:00.769Z,20.8
2014-10-19T02:21:29.144Z,20.8
2014-10-19T02:21:57.521Z,20.8
2014-10-19T02:22:25.896Z,20.8
2014-10-19T02:22:54.273Z,20.8
2014-10-19T02:23:22.663Z,20.8
2014-10-19T02:23:51.041Z,20.8
2014-10-19T02:24:19.416Z,20.8
2014-10-19T02:24:47.791Z,20.8
2014-10-19T02:25:16.168Z,20.8
2014-10-19T02:25:44.543Z,20.8
2014-10-19T02:26:12.921Z,20.8
2014-10-19T02:26:41.296Z,20.8
2014-10-19T02:27:09.674Z,20.8
2014-10-19T02:27:38.049Z,20.8
2014-10-19T02:28:06.424Z,20.8
2014-10-19T02:28:34.801Z,20.8
2014-10-19T02:29:03.176Z,20.8
2014-10-19T02:29:31.553Z,20.8
2014-10-19T02:29:59.928Z,20.8
2014-10-19T02:30:28.306Z,20.8
2014-10-19T02:30:56.681Z,20.8
2014-10-19T02:31:25.056Z,20.8
2014-10-19T02:31:53.433Z,20.8
2014-10-19T02:32:21.808Z,20.8
2014-10-19T02:32:50.186Z,20.8
2014-10-19T02:33:18.561Z,20.8
2014-10-19T02:33:46.939Z,20.8
2014-10-19T02:34:15.314Z,20.8
2014-10-19T02:34:43.689Z,20.8
2014-10-19T02:35:12.066Z,20.8
2014-10-19T02:35:40.441Z,20.8
2014-10-19T02:36:08.819Z,20.8
2014-10-19T02:36:37.194Z,20.8
2014-10-19T02:37:05.572Z,20.8
2014-10-19T02:37:33.947Z,20.8
2014-10-19T02:38:02.322Z,20.8
2014-10-19T02:38:30.699Z,20.8
2014-10-19T02:38:59.074Z,20.8
2014-10-19T02:39:27.451Z,20.8
2014-10-19T02:39:55.826Z,20.8
2014-10-19T02:40:24.204Z,20.8
2014-10-19T02:40:52.595Z,20.8
2014-10-19T02:41:20.954Z,20.8
2014-10-19T02:41:49.331Z,20.8
2014-10-19T02:42:17.706Z,20.8
2014-10-19T02:42:46.084Z,20.7
2014-10-19T02:43:14.459Z,20.8
2014-10-19T07:40:14.785Z,21.2
2014-10-19T07:40:43.160Z,21.2
2014-10-19T07:41:11.554Z,21.2
2014-10-19T07:41:39.929Z,21.2
2014-10-19T07:42:08.306Z,21.2
2014-10-19T07:42:36.681Z,21.2
2014-10-19T07:43:05.059Z,21.2
2014-10-19T07:43:33.449Z,21.2
2014-10-19T07:44:01.824Z,21.2
2014-10-19T07:44:30.201Z,21.2
2014-10-19T07:44:58.576Z,21.2
2014-10-19T07:45:26.970Z,21.2
2014-10-19T07:45:55.345Z,21.2
2014-10-19T07:46:23.723Z,21.2
2014-10-19T07:46:52.098Z,21.2
2014-10-19T07:47:20.473Z,21.2
2014-10-19T07:47:48.850Z,21.2
2014-10-19T07:48:17.225Z,21.2
2014-10-19T07:48:45.618Z,21.2
2014-10-19T07:49:14.008Z,21.2
2014-10-19T07:49:42.371Z,21.2
2014-10-19T07:50:10.761Z,21.2
2014-10-19T07:50:39.136Z,21.2
2014-10-19T07:51:07.514Z,21.2
2014-10-19T07:51:35.905Z,21.2
2014-10-19T07:52:04.282Z,21.2
2014-10-19T07:52:32.672Z,21.2
2014-10-19T07:53:01.050Z,21.2
2014-10-19T07:53:29.425Z,21.2
2014-10-19T07:53:57.800Z,21.3
2014-10-19T07:54:26.193Z,21.2
2014-10-19T07:54:54.568Z,21.2
2014-10-19T07:55:22.945Z,21.2
2014-10-19T07:55:51.320Z,21.2
2014-10-19T07:56:19.714Z,21.2
2014-10-19T07:56:48.089Z,21.2
2014-10-19T07:57:16.464Z,21.2
2014-10-19T07:57:44.841Z,21.2
2014-10-19T07:58:13.216Z,21.2
2014-10-19T07:58:41.609Z,21.2
2014-10-19T07:59:09.984Z,21.2
2014-10-19T07:59:38.362Z,21.2
2014-10-19T08:00:06.737Z,21.2
2014-10-19T08:00:35.128Z,21.2
2014-10-19T08:01:03.505Z,21.2
2014-10-19T08:01:31.880Z,21.2
2014-10-19T08:02:00.257Z,21.2
2014-10-19T08:02:28.632Z,21.2
2014-10-19T08:55:48.005Z,21
2014-10-19T08:56:16.399Z,21.1
2014-10-19T08:56:44.789Z,21
2014-10-19T08:57:13.183Z,21.1
2014-10-19T08:57:41.589Z,21.1
2014-10-19T08:58:09.980Z,21.1
2014-10-19T08:58:38.388Z,21.1
2014-10-19T08:59:06.779Z,21.1
2014-10-19T08:59:35.187Z,21.1
2014-10-19T09:00:03.577Z,21.1
2014-10-19T09:00:31.987Z,21.2
2014-10-19T09:01:00.393Z,21.2
2014-10-19T09:01:28.784Z,21.2
2014-10-19T09:01:57.192Z,21.2
2014-10-19T09:02:25.582Z,21.2
2014-10-19T09:02:53.991Z,21.2
2014-10-19T09:03:22.381Z,21.2
2014-10-19T09:03:50.792Z,21.2
2014-10-19T09:04:19.198Z,21.3
2014-10-19T09:04:47.604Z,21.3
2014-10-19T09:05:15.997Z,21.3
2014-10-19T09:05:44.403Z,21.3
2014-10-19T09:06:12.796Z,21.3
2014-10-19T09:06:41.202Z,21.3
2014-10-19T09:07:09.595Z,21.3
2014-10-19T09:07:38.002Z,21.3
2014-10-19T09:08:06.408Z,21.3
2014-10-19T09:08:34.802Z,21.3
2014-10-19T09:09:03.208Z,21.3
2014-10-19T09:09:31.616Z,21.3
2014-10-19T09:10:00.007Z,21.3
2014-10-19T09:10:28.416Z,21.3
2014-10-19T09:10:56.807Z,21.3
2014-10-19T09:11:25.213Z,21.3
2014-10-19T09:11:53.605Z,21.3
2014-10-19T09:12:22.012Z,21.3
2014-10-19T09:12:50.420Z,21.3
2014-10-19T09:13:18.811Z,21.3
2014-10-19T09:13:47.221Z,21.3
2014-10-19T09:14:15.611Z,21.3
2014-10-19T09:14:44.018Z,21.3
2014-10-19T09:15:12.410Z,21.3
2014-10-19T09:15:40.817Z,21.3
2014-10-19T09:16:09.225Z,21.3
2014-10-19T09:16:37.615Z,21.3
2014-10-19T09:17:06.025Z,21.3
2014-10-19T09:17:34.431Z,21.3
2014-10-19T09:18:02.822Z,21.3
2014-10-19T09:18:31.230Z,21.3
2014-10-19T09:18:59.636Z,21.3
2014-10-19T09:19:28.045Z,21.3
2014-10-19T09:19:56.436Z,21.3
2014-10-19T09:20:24.845Z,21.3
2014-10-19T09:20:53.251Z,21.3
2014-10-19T09:21:21.658Z,21.3
2014-10-19T09:21:50.066Z,21.3
2014-10-19T09:22:18.457Z,21.3
2014-10-19T09:22:46.865Z,21.3
2014-10-19T09:23:15.271Z,21.3
2014-10-19T09:23:43.681Z,21.3
2014-10-19T09:24:12.072Z,21.3
2014-10-19T09:24:40.478Z,21.3
2014-10-19T09:25:08.871Z,21.3
2014-10-19T09:25:37.277Z,21.3
2014-10-19T09:26:05.670Z,21.3
2014-10-19T09:26:34.076Z,21.3
2014-10-19T09:27:02.485Z,21.3
2014-10-19T09:27:30.876Z,21.3
2014-10-19T09:27:59.282Z,21.3
2014-10-19T09:28:27.691Z,21.3
2014-10-19T09:28:56.082Z,21.3
2014-10-19T09:29:24.490Z,21.3
2014-10-19T09:29:52.896Z,21.3
2014-10-19T09:30:21.289Z,21.3
2014-10-19T09:30:49.695Z,21.3
2014-10-19T09:31:18.102Z,21.3
2014-10-19T09:31:46.495Z,21.3
2014-10-19T09:32:14.901Z,21.3
2014-10-19T09:32:43.310Z,21.3
2014-10-19T09:33:11.700Z,21.3
2014-10-19T09:33:40.110Z,21.3
2014-10-19T09:34:08.516Z,21.3
2014-10-19T09:34:36.906Z,21.3
2014-10-19T09:35:05.315Z,21.3
2014-10-19T09:35:33.721Z,21.3
2014-10-19T09:36:02.115Z,21.3
2014-10-19T09:36:30.521Z,21.3
2014-10-19T09:36:58.930Z,21.3
2014-10-19T09:37:27.321Z,21.3
2014-10-19T09:37:55.727Z,21.3
2014-10-19T09:38:24.136Z,21.3
2014-10-19T09:38:52.527Z,21.3
2014-10-19T11:10:17.411Z,21.7
2014-10-19T11:10:45.801Z,21.7
2014-10-19T11:11:14.208Z,21.7
2014-10-19T11:11:42.600Z,21.7
2014-10-19T11:12:11.006Z,21.7
2014-10-19T11:12:39.417Z,21.6
2014-10-19T11:13:07.823Z,21.6
2014-10-19T11:13:36.249Z,21.6
2014-10-19T11:14:04.639Z,21.6
2014-10-19T11:14:33.045Z,21.6
2014-10-19T11:15:01.478Z,21.6
2014-10-19T11:15:29.884Z,21.6
2014-10-19T11:15:58.303Z,21.6
2014-10-19T11:16:26.693Z,21.6
2014-10-19T11:16:55.132Z,21.6
2014-10-19T11:17:23.539Z,21.6
2014-10-19T11:17:51.945Z,21.6
2014-10-19T11:18:20.367Z,21.6
2014-10-19T11:18:48.742Z,21.6
2014-10-19T11:19:17.160Z,21.6
2014-10-19T11:19:45.551Z,21.6
2014-10-19T11:20:13.969Z,21.5
2014-10-19T11:20:42.376Z,21.6
2014-10-19T11:21:10.776Z,21.5
2014-10-19T11:21:39.182Z,21.5
2014-10-19T11:22:07.585Z,21.5
2014-10-19T11:22:35.991Z,21.5
2014-10-19T11:23:04.405Z,21.5
2014-10-19T11:58:34.724Z,21.3
2014-10-19T11:59:03.162Z,21.3
2014-10-19T11:59:31.570Z,21.3
2014-10-19T11:59:59.976Z,21.3
2014-10-19T12:00:28.370Z,21.3
2014-10-19T12:00:56.776Z,21.4
2014-10-19T12:01:25.170Z,21.4
2014-10-19T12:01:53.576Z,21.4
2014-10-19T12:02:21.967Z,21.4
2014-10-19T12:02:50.375Z,21.4
2014-10-19T12:03:18.781Z,21.4
2014-10-19T12:03:47.189Z,21.4
2014-10-19T12:04:15.564Z,21.4
2014-10-19T12:04:43.975Z,21.4
2014-10-19T12:05:12.381Z,21.4
2014-10-19T12:05:40.772Z,21.5
2014-10-19T12:06:09.180Z,21.4
2014-10-19T12:06:37.570Z,21.5
2014-10-19T12:07:05.979Z,21.5
2014-10-19T12:07:34.385Z,21.5
2014-10-19T12:08:02.779Z,21.5
2014-10-19T12:08:31.185Z,21.5
2014-10-19T12:08:59.591Z,21.5
2014-10-19T12:09:28.078Z,21.5
2014-10-19T12:09:56.469Z,21.5
2014-10-19T12:10:24.877Z,21.5
2014-10-19T12:10:53.284Z,21.5
2014-10-19T12:11:21.677Z,21.5
2014-10-19T12:11:50.083Z,21.5
2014-10-19T12:12:18.474Z,21.5
2014-10-19T12:12:46.882Z,21.5
2014-10-19T12:13:15.273Z,21.5
2014-10-19T12:13:43.682Z,21.5
2014-10-19T12:14:12.088Z,21.5
2014-10-19T20:04:07.672Z,21.6
2014-10-19T20:04:36.079Z,21.6
2014-10-19T20:05:04.471Z,21.6
2014-10-19T20:05:32.924Z,21.6
2014-10-19T20:06:01.299Z,21.6
2014-10-19T20:06:29.693Z,21.7
2014-10-19T20:06:58.084Z,21.7
2014-10-19T20:07:26.492Z,21.7
2014-10-19T20:07:54.883Z,21.7
2014-10-19T20:08:23.292Z,21.7
2014-10-19T20:08:51.682Z,21.8
2014-10-19T20:20:04.273Z,22.1
2014-10-19T20:20:22.492Z,22.1
2014-10-19T20:20:40.712Z,22.1
2014-10-19T20:20:58.931Z,22.1
2014-10-19T20:21:17.150Z,22.1
2014-10-19T20:21:35.386Z,22.1
2014-10-19T20:21:53.590Z,22.1
2014-10-19T20:22:11.808Z,22.1
2014-10-19T20:22:30.027Z,22.1
2014-10-19T20:22:48.248Z,22.2
2014-10-19T20:23:06.467Z,22.2
2014-10-19T20:23:24.686Z,22.1
2014-10-19T20:23:42.919Z,22.2
2014-10-19T20:24:01.138Z,22.2
2014-10-19T20:24:19.357Z,22.2
2014-10-19T20:24:37.569Z,22.2
2014-10-19T20:24:55.788Z,22.2
2014-10-19T20:25:14.007Z,22.2
2014-10-19T20:25:32.225Z,22.2
2014-10-19T20:25:50.436Z,22.2
2014-10-19T20:26:08.655Z,22.2
2014-10-19T20:26:26.874Z,22.2
2014-10-19T20:26:45.101Z,22.2
2014-10-19T20:27:03.319Z,22.2
2014-10-19T20:27:21.523Z,22.2
2014-10-19T20:27:39.749Z,22.2
2014-10-19T20:27:57.968Z,22.2
2014-10-19T20:28:16.187Z,22.2
2014-10-19T20:28:34.406Z,22.3
2014-10-19T20:28:52.631Z,22.3
2014-10-19T20:29:10.850Z,22.3
2014-10-19T20:29:29.053Z,22.3
2014-10-19T20:29:47.276Z,22.3
2014-10-19T20:30:05.495Z,22.3
2014-10-19T20:30:23.713Z,22.3
2014-10-19T20:30:41.936Z,22.3
2014-10-19T20:31:00.155Z,22.3
2014-10-19T20:31:18.374Z,22.3
2014-10-19T20:31:36.582Z,22.3
2014-10-19T20:31:54.988Z,22.3
2014-10-19T20:32:13.191Z,22.3
2014-10-19T20:32:31.426Z,22.3
2014-10-19T20:32:49.633Z,22.3
2014-10-19T20:33:07.851Z,22.3
2014-10-19T20:33:26.070Z,22.3
2014-10-19T20:33:44.294Z,22.3
2014-10-19T20:34:02.513Z,22.3
2014-10-19T20:34:20.731Z,22.3
2014-10-19T20:34:38.950Z,22.3
2014-10-19T20:34:57.172Z,22.3
2014-10-19T20:35:15.375Z,22.3
2014-10-19T20:35:33.594Z,22.3
2014-10-19T20:35:51.816Z,22.3
2014-10-19T20:36:10.034Z,22.3
2014-10-19T20:36:28.253Z,22.3
2014-10-19T20:36:46.472Z,22.4
2014-10-19T20:37:04.694Z,22.4
2014-10-19T20:37:22.928Z,22.4
2014-10-19T20:37:41.147Z,22.4
2014-10-19T20:37:59.369Z,22.4
2014-10-19T20:38:17.604Z,22.4
2014-10-19T20:38:35.807Z,22.4
2014-10-19T20:38:54.026Z,22.4
2014-10-19T20:39:12.246Z,22.4
2014-10-19T20:39:30.465Z,22.4
2014-10-19T20:39:48.700Z,22.4
2014-10-19T20:40:06.907Z,22.4
2014-10-19T20:40:25.141Z,22.4
2014-10-19T20:40:43.360Z,22.4
2014-10-19T20:41:00.938Z,22.4
2014-10-19T20:41:19.175Z,22.4
2014-10-19T20:41:38.316Z,22.4
2014-10-19T20:41:56.582Z,22.4
2014-10-19T20:42:14.771Z,22.4
2014-10-19T20:42:32.990Z,22.4
2014-10-19T20:42:51.209Z,22.4
2014-10-19T20:43:09.412Z,22.4
2014-10-19T20:43:27.666Z,22.4
2014-10-19T20:43:45.884Z,22.4
2014-10-19T20:44:04.103Z,22.4
2014-10-19T20:44:22.308Z,22.4
2014-10-19T20:44:40.527Z,22.4
2014-10-19T20:44:58.746Z,22.4
2014-10-19T20:45:16.965Z,22.5
2014-10-19T20:45:35.185Z,22.4
2014-10-19T20:45:53.388Z,22.5
2014-10-19T20:46:11.607Z,22.5
2014-10-19T20:46:29.829Z,22.4
2014-10-19T20:46:48.048Z,22.4
2014-10-19T20:47:06.266Z,22.5
2014-10-19T20:47:24.487Z,22.5
2014-10-19T20:47:42.706Z,22.5
2014-10-19T20:48:00.925Z,22.5
2014-10-19T20:48:19.143Z,22.5
2014-10-19T20:48:37.349Z,22.5
2014-10-19T20:48:55.567Z,22.5
2014-10-19T20:49:13.802Z,22.5
2014-10-19T20:49:32.008Z,22.5
2014-10-19T20:49:50.227Z,22.5
2014-10-19T20:50:08.445Z,22.5
2014-10-19T20:50:26.666Z,22.5
2014-10-19T20:50:44.885Z,22.5
2014-10-19T20:51:03.088Z,22.5
2014-10-19T20:51:21.354Z,22.5
2014-10-19T20:51:39.527Z,22.5
2014-10-19T20:51:57.746Z,22.5
2014-10-19T20:52:15.981Z,22.5
2014-10-19T20:52:34.187Z,22.5
2014-10-19T20:52:52.452Z,22.5
2014-10-19T20:53:10.671Z,22.5
2014-10-19T20:53:28.892Z,22.5
2014-10-19T20:53:47.111Z,22.5
2014-10-19T20:54:05.329Z,22.5
2014-10-19T20:54:23.550Z,22.6
2014-10-19T20:54:41.769Z,22.5
2014-10-19T20:54:59.972Z,22.6
2014-10-19T20:55:18.191Z,22.6
2014-10-19T20:55:36.411Z,22.6
2014-10-19T20:55:54.630Z,22.6
2014-10-19T20:56:12.849Z,22.6
2014-10-19T20:56:31.055Z,22.6
2014-10-19T20:56:49.289Z,22.6
2014-10-19T20:57:07.493Z,22.6
2014-10-19T20:57:25.729Z,22.6
2014-10-19T20:57:43.948Z,22.6
2014-10-19T20:58:02.151Z,22.6
2014-10-19T20:58:20.370Z,22.6
2014-10-19T20:58:38.590Z,22.6
2014-10-19T20:58:56.809Z,22.6
2014-10-19T20:59:15.028Z,22.6
2014-10-19T20:59:33.233Z,22.6
2014-10-19T20:59:51.452Z,22.6
2014-10-19T21:00:09.670Z,22.6
2014-10-19T21:00:27.891Z,22.6
2014-10-19T21:00:46.110Z,22.6
2014-10-19T21:01:04.329Z,22.6
2014-10-19T21:01:22.532Z,22.6
2014-10-19T21:01:40.754Z,22.6
2014-10-19T21:01:58.972Z,22.6
2014-10-19T21:02:17.191Z,22.6
2014-10-19T21:02:35.396Z,22.6
2014-10-19T21:02:53.615Z,22.6
2014-10-19T21:03:11.834Z,22.6
2014-10-19T21:03:30.052Z,22.6
2014-10-19T21:03:48.274Z,22.6
2014-10-19T21:04:06.493Z,22.6
2014-10-19T21:04:24.712Z,22.6
2014-10-19T21:04:42.948Z,22.6
2014-10-19T21:05:01.167Z,22.6
2014-10-19T21:05:19.386Z,22.6
2014-10-19T21:05:37.622Z,22.6
2014-10-19T21:05:55.825Z,22.6
2014-10-19T21:06:14.044Z,22.6
2014-10-19T21:06:32.263Z,22.6
2014-10-19T21:06:50.499Z,22.6
2014-10-19T21:07:08.702Z,22.6
2014-10-19T21:07:26.921Z,22.6
2014-10-19T21:07:45.143Z,22.6
2014-10-19T21:08:03.361Z,22.6
2014-10-19T21:08:21.564Z,22.6
2014-10-19T21:08:39.785Z,22.6
2014-10-19T21:08:58.004Z,22.6
2014-10-19T21:09:16.223Z,22.6
2014-10-19T21:09:34.285Z,22.6
2014-10-19T21:09:52.490Z,22.6
2014-10-19T21:10:10.709Z,22.6
2014-10-19T21:10:28.943Z,22.6
2014-10-19T21:10:47.165Z,22.6
2014-10-19T21:11:05.368Z,22.6
2014-10-19T21:11:23.587Z,22.6
2014-10-19T21:11:41.808Z,22.6
2014-10-19T21:12:00.027Z,22.6
2014-10-19T21:12:18.245Z,22.6
2014-10-19T21:12:36.451Z,22.6
2014-10-19T21:12:54.701Z,22.7
2014-10-19T21:13:12.920Z,22.6
2014-10-19T21:13:31.139Z,22.7
2014-10-19T21:13:49.344Z,22.7
2014-10-19T21:14:07.578Z,22.7
2014-10-19T21:14:25.782Z,22.6
2014-10-19T21:14:50.066Z,22.7
2014-10-19T21:15:08.285Z,22.6
2014-10-19T21:15:26.503Z,22.7
2014-10-19T21:15:44.724Z,22.6
2014-10-19T21:16:02.927Z,22.7
2014-10-19T21:16:21.146Z,22.7
2014-10-19T21:16:39.365Z,22.7
2014-10-19T21:16:57.586Z,22.7
2014-10-19T21:17:15.805Z,22.6
2014-10-19T21:17:34.024Z,22.6
2014-10-19T21:17:52.228Z,22.6
2014-10-19T21:18:10.447Z,22.6
2014-10-19T21:18:28.666Z,22.7
2014-10-19T21:18:46.916Z,22.7
2014-10-19T21:19:05.170Z,22.7
2014-10-19T21:19:23.388Z,22.7
2014-10-19T21:19:41.607Z,22.7
2014-10-19T21:19:59.827Z,22.7
2014-10-19T21:20:18.030Z,22.7
2014-10-19T21:20:36.264Z,22.7
2014-10-19T21:20:54.483Z,22.7
2014-10-19T21:21:12.705Z,22.7
2014-10-19T21:21:30.908Z,22.7
2014-10-19T21:21:49.127Z,22.7
2014-10-19T21:22:07.348Z,22.7
2014-10-19T21:22:25.567Z,22.7
2014-10-19T21:22:43.786Z,22.7
2014-10-19T21:23:02.005Z,22.7
2014-10-19T21:23:20.241Z,22.7
2014-10-19T21:23:38.475Z,22.7
2014-10-19T21:23:56.694Z,22.7
2014-10-19T21:24:14.899Z,22.7
2014-10-19T21:24:33.118Z,22.7
2014-10-19T21:24:51.337Z,22.7
2014-10-19T21:25:09.556Z,22.7
2014-10-19T21:25:27.762Z,22.7
2014-10-19T21:25:45.965Z,22.8
2014-10-19T21:26:04.184Z,22.8
2014-10-19T21:26:22.404Z,22.7
2014-10-19T21:26:40.607Z,22.7
2014-10-19T21:26:58.826Z,22.8
2014-10-19T21:27:17.045Z,22.7
2014-10-19T21:27:35.251Z,22.7
2014-10-19T21:27:53.470Z,22.7
2014-10-19T21:28:11.673Z,22.7
2014-10-19T21:28:29.895Z,22.7
2014-10-19T21:28:48.113Z,22.7
2014-10-19T21:29:06.332Z,22.7
2014-10-19T21:29:24.551Z,22.7
2014-10-19T21:29:42.756Z,22.7
2014-10-19T21:30:00.975Z,22.7
2014-10-19T21:30:19.194Z,22.7
2014-10-19T21:30:37.399Z,22.7
2014-10-19T21:30:55.617Z,22.7
2014-10-19T21:31:13.836Z,22.6
2014-10-19T21:31:32.055Z,22.6
2014-10-19T21:31:50.260Z,22.6
2014-10-19T21:32:08.479Z,22.6
2014-10-19T21:32:26.698Z,22.6
2014-10-19T21:32:44.904Z,22.6
2014-10-19T21:33:03.122Z,22.6
2014-10-19T21:33:21.341Z,22.6
2014-10-19T21:33:39.544Z,22.6